Time;durP1;ratioP1;P1;durP2;ratioP2;P2;SDS_P1;SDS_P2;PMS_P1;PMS_P2;Temp;Humidity;BMP_temperature;BMP_pressure;BME280_temperature;BME280_humidity;BME280_pressure;Samples;Min_cycle;Max_cycle;Signal;HPM_P1;HPM_P2
2024/01/16 00:01:24;;;;;;;5.80;3.85;;;;;;;;;;5036244;28;20131;-67
2024/01/16 00:03:51;;;;;;;6.63;4.05;;;;;;;;;;5045324;28;20416;-69
2024/01/16 00:06:18;;;;;;;7.13;3.45;;;;;;;;;;5048906;28;20083;-68
2024/01/16 00:08:45;;;;;;;8.98;3.78;;;;;;;;;;5042560;28;20045;-68
2024/01/16 00:11:11;;;;;;;7.47;4.07;;;;;;;;;;5050419;28;20495;-68
2024/01/16 00:13:38;;;;;;;6.70;3.40;;;;;;;;;;5052096;28;20077;-69
2024/01/16 00:16:04;;;;;;;7.75;4.03;;;;;;;;;;5046222;28;20120;-68
2024/01/16 00:18:31;;;;;;;9.15;3.83;;;;;;;;;;5044471;28;20106;-68
2024/01/16 00:20:58;;;;;;;5.13;3.60;;;;;;;;;;5051683;28;20516;-69
2024/01/16 00:23:25;;;;;;;7.72;3.53;;;;;;;;;;5040116;28;20145;-68
2024/01/16 00:25:52;;;;;;;6.32;3.80;;;;;;;;;;5047304;28;20114;-68
2024/01/16 00:28:19;;;;;;;6.43;3.40;;;;;;;;;;5051311;28;20041;-68
2024/01/16 00:30:46;;;;;;;6.45;3.80;;;;;;;;;;5046488;28;20460;-68
2024/01/16 00:33:12;;;;;;;7.03;3.63;;;;;;;;;;5051749;28;20044;-68
2024/01/16 00:35:38;;;;;;;6.80;3.30;;;;;;;;;;5051585;28;20044;-68
2024/01/16 00:38:06;;;;;;;8.20;3.53;;;;;;;;;;5034538;28;20500;-69
2024/01/16 00:40:33;;;;;;;6.70;3.40;;;;;;;;;;5050669;28;20049;-68
2024/01/16 00:42:59;;;;;;;6.50;3.47;;;;;;;;;;5043485;28;20394;-68
2024/01/16 00:45:25;;;;;;;8.10;3.50;;;;;;;;;;5040838;28;20051;-68
2024/01/16 00:47:52;;;;;;;8.23;3.58;;;;;;;;;;5045806;28;20045;-69
2024/01/16 00:50:18;;;;;;;7.55;3.55;;;;;;;;;;5045739;28;20511;-68
2024/01/16 00:52:44;;;;;;;5.50;3.10;;;;;;;;;;5051900;28;20052;-68
2024/01/16 00:55:12;;;;;;;6.82;3.30;;;;;;;;;;5051530;28;20489;-68
2024/01/16 00:57:39;;;;;;;8.10;3.10;;;;;;;;;;5049931;28;20041;-68
2024/01/16 01:00:06;;;;;;;6.57;3.70;;;;;;;;;;5034933;28;20042;-68
2024/01/16 01:02:32;;;;;;;6.10;3.40;;;;;;;;;;5051285;28;20052;-68
2024/01/16 01:04:59;;;;;;;5.03;2.95;;;;;;;;;;5043034;28;20045;-68
2024/01/16 01:07:26;;;;;;;6.15;3.00;;;;;;;;;;5047280;28;20052;-69
2024/01/16 01:09:53;;;;;;;5.07;3.28;;;;;;;;;;5051177;28;20496;-68
2024/01/16 01:12:21;;;;;;;6.63;3.20;;;;;;;;;;5042438;28;20049;-67
2024/01/16 01:14:47;;;;;;;6.50;2.97;;;;;;;;;;5040034;28;20140;-68
2024/01/16 01:17:13;;;;;;;6.63;3.47;;;;;;;;;;5031753;28;20565;-68
2024/01/16 01:19:40;;;;;;;8.05;3.90;;;;;;;;;;5037056;28;20048;-68
2024/01/16 01:22:06;;;;;;;5.35;3.25;;;;;;;;;;5043177;28;20048;-68
2024/01/16 01:24:32;;;;;;;6.18;3.30;;;;;;;;;;5050920;28;20131;-69
2024/01/16 01:26:59;;;;;;;5.07;3.22;;;;;;;;;;5050263;28;20049;-68
2024/01/16 01:29:27;;;;;;;4.85;2.90;;;;;;;;;;5039595;28;20064;-67
2024/01/16 01:31:53;;;;;;;5.63;3.10;;;;;;;;;;5050630;28;20143;-68
2024/01/16 01:34:19;;;;;;;4.40;2.78;;;;;;;;;;5040142;28;20151;-68
2024/01/16 01:36:46;;;;;;;7.60;3.30;;;;;;;;;;5045444;28;20059;-68
2024/01/16 01:39:12;;;;;;;5.63;3.75;;;;;;;;;;5050035;28;20044;-68
2024/01/16 01:41:39;;;;;;;5.15;3.22;;;;;;;;;;5050976;28;20481;-68
2024/01/16 01:44:06;;;;;;;6.32;3.08;;;;;;;;;;5042818;28;20128;-68
2024/01/16 01:46:35;;;;;;;4.28;2.88;;;;;;;;;;5049985;28;20049;-68
2024/01/16 01:49:02;;;;;;;6.10;3.10;;;;;;;;;;5049925;28;20485;-68
2024/01/16 01:51:29;;;;;;;6.13;3.42;;;;;;;;;;5046713;28;20049;-68
2024/01/16 01:53:55;;;;;;;5.03;3.08;;;;;;;;;;5047119;28;20051;-68
2024/01/16 01:56:22;;;;;;;5.75;3.25;;;;;;;;;;5042144;28;20497;-68
2024/01/16 01:58:50;;;;;;;5.07;3.30;;;;;;;;;;5049656;28;20055;-68
2024/01/16 02:01:18;;;;;;;5.13;3.28;;;;;;;;;;5050074;28;20531;-68
2024/01/16 02:03:46;;;;;;;4.82;3.38;;;;;;;;;;5050330;28;20045;-68
2024/01/16 02:06:15;;;;;;;5.78;3.30;;;;;;;;;;5034466;28;20540;-68
2024/01/16 02:08:41;;;;;;;4.35;3.17;;;;;;;;;;5049635;28;20389;-68
2024/01/16 02:11:08;;;;;;;6.28;2.88;;;;;;;;;;5044881;28;20059;-69
2024/01/16 02:13:34;;;;;;;6.90;4.30;;;;;;;;;;5049735;28;20047;-69
2024/01/16 02:16:03;;;;;;;6.22;3.38;;;;;;;;;;5049431;28;20087;-68
2024/01/16 02:18:29;;;;;;;5.43;3.33;;;;;;;;;;5044821;28;20071;-68
2024/01/16 02:20:59;;;;;;;4.93;2.75;;;;;;;;;;5049957;28;20045;-67
2024/01/16 02:23:27;;;;;;;5.60;3.40;;;;;;;;;;5044048;28;20049;-68
2024/01/16 02:25:54;;;;;;;4.43;3.25;;;;;;;;;;5030337;28;20075;-67
2024/01/16 02:28:21;;;;;;;7.80;3.60;;;;;;;;;;5046335;28;20489;-68
2024/01/16 02:30:47;;;;;;;5.85;3.70;;;;;;;;;;5034180;28;20053;-67
2024/01/16 02:33:13;;;;;;;5.15;3.47;;;;;;;;;;5043637;28;20561;-67
2024/01/16 02:35:40;;;;;;;6.53;3.90;;;;;;;;;;5044954;28;20045;-67
2024/01/16 02:38:06;;;;;;;6.80;3.90;;;;;;;;;;5041581;28;20045;-69
2024/01/16 02:40:34;;;;;;;9.48;4.20;;;;;;;;;;5050024;28;20557;-68
2024/01/16 02:43:00;;;;;;;8.57;3.47;;;;;;;;;;5049294;28;20051;-70
2024/01/16 02:45:26;;;;;;;10.45;4.15;;;;;;;;;;5047392;28;20051;-68
2024/01/16 02:47:53;;;;;;;6.88;3.15;;;;;;;;;;5049029;28;20504;-68
2024/01/16 02:50:20;;;;;;;6.80;3.58;;;;;;;;;;5044235;28;20053;-67
2024/01/16 02:52:47;;;;;;;6.68;3.65;;;;;;;;;;5040522;28;20041;-68
2024/01/16 02:55:13;;;;;;;7.63;3.75;;;;;;;;;;5032258;28;20129;-68
2024/01/16 02:57:41;;;;;;;5.80;3.50;;;;;;;;;;5043308;28;20077;-68
2024/01/16 03:00:08;;;;;;;8.20;4.07;;;;;;;;;;5042186;28;20053;-68
2024/01/16 03:02:34;;;;;;;8.18;3.67;;;;;;;;;;5045053;28;20420;-69
2024/01/16 03:05:03;;;;;;;5.43;3.47;;;;;;;;;;5043727;28;20041;-67
2024/01/16 03:07:29;;;;;;;7.88;4.15;;;;;;;;;;5047295;28;20127;-67
2024/01/16 03:09:55;;;;;;;7.03;3.83;;;;;;;;;;5052752;28;20045;-67
2024/01/16 03:12:22;;;;;;;9.65;3.67;;;;;;;;;;5053293;28;20049;-67
2024/01/16 03:14:50;;;;;;;7.47;3.63;;;;;;;;;;5052894;28;20144;-67
2024/01/16 03:17:16;;;;;;;6.95;3.88;;;;;;;;;;5040029;28;20398;-68
2024/01/16 03:19:44;;;;;;;5.45;3.55;;;;;;;;;;5047757;28;20045;-67
2024/01/16 03:22:10;;;;;;;6.80;3.53;;;;;;;;;;5051201;28;20052;-67
2024/01/16 03:24:36;;;;;;;7.95;4.05;;;;;;;;;;5033962;28;20056;-67
2024/01/16 03:27:04;;;;;;;6.63;3.90;;;;;;;;;;5050146;28;20063;-67
2024/01/16 03:29:30;;;;;;;5.68;3.90;;;;;;;;;;5052802;28;20052;-68
2024/01/16 03:31:58;;;;;;;7.93;4.03;;;;;;;;;;5045151;28;20053;-67
2024/01/16 03:34:24;;;;;;;8.50;3.75;;;;;;;;;;5049648;28;20045;-67
2024/01/16 03:36:51;;;;;;;7.15;3.60;;;;;;;;;;5041048;28;20048;-68
2024/01/16 03:39:17;;;;;;;6.00;3.72;;;;;;;;;;5043086;28;20505;-67
2024/01/16 03:41:43;;;;;;;8.15;4.00;;;;;;;;;;5047040;28;20049;-69
2024/01/16 03:44:10;;;;;;;7.30;4.00;;;;;;;;;;5038329;28;20041;-69
2024/01/16 03:46:36;;;;;;;6.15;3.72;;;;;;;;;;5044830;28;20418;-67
2024/01/16 03:49:04;;;;;;;6.55;4.05;;;;;;;;;;5036343;28;20053;-67
2024/01/16 03:51:30;;;;;;;9.18;4.25;;;;;;;;;;5052569;28;20418;-68
2024/01/16 03:53:57;;;;;;;7.88;4.28;;;;;;;;;;5045153;28;20045;-68
2024/01/16 03:56:23;;;;;;;21.10;9.10;;;;;;;;;;5039255;28;20416;-68
2024/01/16 03:58:49;;;;;;;7.95;4.80;;;;;;;;;;5052098;28;20055;-68
2024/01/16 04:01:16;;;;;;;6.15;3.70;;;;;;;;;;5047534;28;20128;-69
2024/01/16 04:03:42;;;;;;;9.95;3.97;;;;;;;;;;5051855;28;20060;-69
2024/01/16 04:06:16;;;;;;;7.10;4.05;;;;;;;;;;5051220;28;20045;-68
2024/01/16 04:08:43;;;;;;;8.95;3.80;;;;;;;;;;5041025;28;20045;-68
2024/01/16 04:11:12;;;;;;;7.25;4.18;;;;;;;;;;5050206;28;20087;-68
2024/01/16 04:13:38;;;;;;;6.15;3.67;;;;;;;;;;5051868;28;20535;-68
2024/01/16 04:16:05;;;;;;;5.40;3.80;;;;;;;;;;5051454;28;20045;-68
2024/01/16 04:18:33;;;;;;;8.77;4.07;;;;;;;;;;5051129;28;20111;-67
2024/01/16 04:21:00;;;;;;;8.32;4.18;;;;;;;;;;5036733;28;20424;-68
2024/01/16 04:23:28;;;;;;;7.22;4.10;;;;;;;;;;5051937;28;20148;-69
2024/01/16 04:25:54;;;;;;;8.18;4.25;;;;;;;;;;5044365;28;20046;-68
2024/01/16 04:28:20;;;;;;;8.98;4.90;;;;;;;;;;5040224;28;20088;-69
2024/01/16 04:30:47;;;;;;;10.02;4.75;;;;;;;;;;5046554;28;20124;-69
2024/01/16 04:33:13;;;;;;;8.88;4.55;;;;;;;;;;5050602;28;20136;-68
2024/01/16 04:35:40;;;;;;;7.30;4.55;;;;;;;;;;5046449;28;20045;-67
2024/01/16 04:38:07;;;;;;;9.02;4.50;;;;;;;;;;5048664;28;20080;-68
2024/01/16 04:40:35;;;;;;;12.07;4.97;;;;;;;;;;5042200;28;20045;-68
2024/01/16 04:43:02;;;;;;;12.15;5.20;;;;;;;;;;5048243;28;20095;-67
2024/01/16 04:45:28;;;;;;;9.88;4.28;;;;;;;;;;5048300;28;20049;-67
2024/01/16 04:47:55;;;;;;;7.05;4.10;;;;;;;;;;5050154;28;20053;-69
2024/01/16 04:50:21;;;;;;;7.63;5.00;;;;;;;;;;5043022;28;20056;-68
2024/01/16 04:52:48;;;;;;;8.73;4.53;;;;;;;;;;5046234;28;20048;-68
2024/01/16 04:55:14;;;;;;;11.07;5.10;;;;;;;;;;5034043;28;20045;-68
2024/01/16 04:57:42;;;;;;;10.35;5.25;;;;;;;;;;5044191;28;20049;-67
2024/01/16 05:00:09;;;;;;;13.07;5.40;;;;;;;;;;5035527;28;20045;-68
2024/01/16 05:02:35;;;;;;;11.52;5.43;;;;;;;;;;5046141;28;20056;-69
2024/01/16 05:05:02;;;;;;;11.90;5.57;;;;;;;;;;5048267;28;20070;-68
2024/01/16 05:07:28;;;;;;;8.60;5.15;;;;;;;;;;5038914;28;20143;-67
2024/01/16 05:09:55;;;;;;;10.00;4.35;;;;;;;;;;5035465;28;20448;-67
2024/01/16 05:12:22;;;;;;;12.43;5.50;;;;;;;;;;5050680;28;20084;-68
2024/01/16 05:14:50;;;;;;;9.15;5.18;;;;;;;;;;5042178;28;20048;-69
2024/01/16 05:17:16;;;;;;;7.40;5.20;;;;;;;;;;5046468;28;20135;-68
2024/01/16 05:19:43;;;;;;;8.60;4.97;;;;;;;;;;5031284;28;20060;-67
2024/01/16 05:22:10;;;;;;;7.35;5.30;;;;;;;;;;5047396;28;20044;-67
2024/01/16 05:24:37;;;;;;;9.45;5.53;;;;;;;;;;5036925;28;20413;-68
2024/01/16 05:27:04;;;;;;;10.77;5.50;;;;;;;;;;5049402;28;20041;-68
2024/01/16 05:29:30;;;;;;;14.73;6.13;;;;;;;;;;5049264;28;20084;-68
2024/01/16 05:31:58;;;;;;;13.65;6.57;;;;;;;;;;5042790;28;20046;-67
2024/01/16 05:34:25;;;;;;;14.32;6.22;;;;;;;;;;5047887;28;20049;-68
2024/01/16 05:36:52;;;;;;;8.68;5.25;;;;;;;;;;5038502;28;20307;-68
2024/01/16 05:39:18;;;;;;;11.02;5.50;;;;;;;;;;5048733;28;20497;-68
2024/01/16 05:41:44;;;;;;;10.07;5.63;;;;;;;;;;5045268;28;20136;-68
2024/01/16 05:44:11;;;;;;;13.73;5.63;;;;;;;;;;5041630;28;20472;-68
2024/01/16 05:46:37;;;;;;;8.98;4.57;;;;;;;;;;5037213;28;20049;-67
2024/01/16 05:49:05;;;;;;;9.93;4.45;;;;;;;;;;5034705;28;20416;-68
2024/01/16 05:51:31;;;;;;;8.98;4.25;;;;;;;;;;5042707;28;20539;-68
2024/01/16 05:53:58;;;;;;;9.40;4.28;;;;;;;;;;5042697;28;20055;-67
2024/01/16 05:56:24;;;;;;;6.53;4.20;;;;;;;;;;5038785;28;20132;-69
2024/01/16 05:58:52;;;;;;;8.75;4.25;;;;;;;;;;5049315;28;20055;-68
2024/01/16 06:01:18;;;;;;;11.27;4.47;;;;;;;;;;5042299;28;20048;-67
2024/01/16 06:03:46;;;;;;;7.82;4.20;;;;;;;;;;5045388;28;20619;-68
2024/01/16 06:06:14;;;;;;;7.90;4.32;;;;;;;;;;5041505;28;20098;-69
2024/01/16 06:08:40;;;;;;;10.35;5.25;;;;;;;;;;5036285;28;20143;-67
2024/01/16 06:11:07;;;;;;;7.38;4.50;;;;;;;;;;5039741;28;20052;-68
2024/01/16 06:13:33;;;;;;;7.55;4.38;;;;;;;;;;5048303;28;20051;-69
2024/01/16 06:15:59;;;;;;;6.70;3.92;;;;;;;;;;5046584;28;20127;-68
2024/01/16 06:18:26;;;;;;;8.60;4.85;;;;;;;;;;5039056;28;20132;-68
2024/01/16 06:20:52;;;;;;;9.18;5.28;;;;;;;;;;5042057;28;20072;-68
2024/01/16 06:23:20;;;;;;;11.60;4.75;;;;;;;;;;5039408;28;20041;-68
2024/01/16 06:25:46;;;;;;;8.93;5.03;;;;;;;;;;5045271;28;20450;-67
2024/01/16 06:28:16;;;;;;;8.90;4.38;;;;;;;;;;5041368;28;20054;-67
2024/01/16 06:30:42;;;;;;;5.78;3.92;;;;;;;;;;5044430;28;20052;-68
2024/01/16 06:33:08;;;;;;;9.80;4.93;;;;;;;;;;5042997;28;20041;-67
2024/01/16 06:35:35;;;;;;;9.38;4.30;;;;;;;;;;5044993;28;20047;-67
2024/01/16 06:38:02;;;;;;;7.35;4.18;;;;;;;;;;5045872;28;20153;-69
2024/01/16 06:40:30;;;;;;;9.10;5.05;;;;;;;;;;5047587;28;20143;-68
2024/01/16 06:42:56;;;;;;;10.25;5.57;;;;;;;;;;5045932;28;20420;-68
2024/01/16 06:45:22;;;;;;;9.32;4.90;;;;;;;;;;5053109;28;20045;-70
2024/01/16 06:47:49;;;;;;;7.93;4.65;;;;;;;;;;5048097;28;20123;-68
2024/01/16 06:50:15;;;;;;;17.33;5.85;;;;;;;;;;5052301;28;20045;-67
2024/01/16 06:52:41;;;;;;;13.65;5.05;;;;;;;;;;5053206;28;20049;-69
2024/01/16 06:55:08;;;;;;;12.18;5.55;;;;;;;;;;5052898;28;20055;-68
2024/01/16 06:57:36;;;;;;;8.57;5.18;;;;;;;;;;5047903;28;20127;-68
2024/01/16 07:00:02;;;;;;;10.82;4.53;;;;;;;;;;5049916;28;20051;-69
2024/01/16 07:02:29;;;;;;;9.18;4.63;;;;;;;;;;5046336;28;20132;-68
2024/01/16 07:04:55;;;;;;;10.27;4.80;;;;;;;;;;5053291;28;20562;-68
2024/01/16 07:07:22;;;;;;;9.27;4.70;;;;;;;;;;5049699;28;20101;-68
2024/01/16 07:09:48;;;;;;;9.50;4.70;;;;;;;;;;5041691;28;20051;-68
2024/01/16 07:12:14;;;;;;;7.72;4.55;;;;;;;;;;5045602;28;20048;-68
2024/01/16 07:14:42;;;;;;;9.32;4.53;;;;;;;;;;5047814;28;20128;-68
2024/01/16 07:17:09;;;;;;;8.13;4.53;;;;;;;;;;5050779;28;20051;-68
2024/01/16 07:19:35;;;;;;;8.95;4.95;;;;;;;;;;5033254;28;20048;-68
2024/01/16 07:22:02;;;;;;;6.97;3.97;;;;;;;;;;5049947;28;20052;-68
2024/01/16 07:24:28;;;;;;;13.10;5.70;;;;;;;;;;5053123;28;20053;-69
2024/01/16 07:26:55;;;;;;;13.13;5.53;;;;;;;;;;5052295;28;20059;-69
2024/01/16 07:29:21;;;;;;;11.10;5.35;;;;;;;;;;5048966;28;20493;-68
2024/01/16 07:31:49;;;;;;;10.70;4.72;;;;;;;;;;5039715;28;20049;-68
2024/01/16 07:34:19;;;;;;;9.65;4.82;;;;;;;;;;5045061;28;20041;-68
2024/01/16 07:36:46;;;;;;;8.25;4.20;;;;;;;;;;5052333;28;20052;-68
2024/01/16 07:39:12;;;;;;;9.23;5.65;;;;;;;;;;5050587;28;20493;-68
2024/01/16 07:41:39;;;;;;;8.00;5.63;;;;;;;;;;5041157;28;20052;-68
2024/01/16 07:44:05;;;;;;;9.02;5.40;;;;;;;;;;5049596;28;20045;-68
2024/01/16 07:46:31;;;;;;;9.88;5.38;;;;;;;;;;5048642;28;20051;-68
2024/01/16 07:48:59;;;;;;;11.35;5.40;;;;;;;;;;5051876;28;20067;-68
2024/01/16 07:51:26;;;;;;;10.20;5.85;;;;;;;;;;5044604;28;20060;-68
2024/01/16 07:54:05;;;;;;;12.15;5.72;;;;;;;;;;5040922;28;20052;-67
2024/01/16 07:56:31;;;;;;;8.80;5.60;;;;;;;;;;5049841;28;20056;-68
2024/01/16 07:58:57;;;;;;;15.15;6.97;;;;;;;;;;5051804;28;20394;-68
2024/01/16 08:01:24;;;;;;;11.23;7.05;;;;;;;;;;5046868;28;20067;-68
2024/01/16 08:03:50;;;;;;;15.27;7.20;;;;;;;;;;5051907;28;20052;-67
2024/01/16 08:06:18;;;;;;;11.10;6.30;;;;;;;;;;5038778;28;20212;-68
2024/01/16 08:08:46;;;;;;;11.82;6.55;;;;;;;;;;5045332;28;20052;-67
2024/01/16 08:11:12;;;;;;;11.18;6.55;;;;;;;;;;5041146;28;20063;-68
2024/01/16 08:13:39;;;;;;;9.55;5.53;;;;;;;;;;5046350;28;20420;-67
2024/01/16 08:16:06;;;;;;;11.95;6.03;;;;;;;;;;5051486;28;20049;-69
2024/01/16 08:18:32;;;;;;;9.55;5.43;;;;;;;;;;5047004;28;20059;-68
2024/01/16 08:20:58;;;;;;;7.82;5.50;;;;;;;;;;5051087;28;20083;-67
2024/01/16 08:23:26;;;;;;;10.80;5.68;;;;;;;;;;5051509;28;20460;-68
2024/01/16 08:25:52;;;;;;;8.95;5.32;;;;;;;;;;5044425;28;20042;-68
2024/01/16 08:28:19;;;;;;;11.45;6.55;;;;;;;;;;5048026;28;20052;-67
2024/01/16 08:30:45;;;;;;;11.48;6.15;;;;;;;;;;5046183;28;20051;-67
2024/01/16 08:33:12;;;;;;;10.18;5.75;;;;;;;;;;5050339;28;20412;-68
2024/01/16 08:35:39;;;;;;;10.75;6.40;;;;;;;;;;5043536;28;20463;-67
2024/01/16 08:38:05;;;;;;;10.63;6.13;;;;;;;;;;5048080;28;20044;-68
2024/01/16 08:40:33;;;;;;;13.13;5.95;;;;;;;;;;5044515;28;20412;-67
2024/01/16 08:42:59;;;;;;;11.50;6.18;;;;;;;;;;5048101;28;20131;-67
2024/01/16 08:45:26;;;;;;;12.00;5.90;;;;;;;;;;5043635;28;20052;-67
2024/01/16 08:47:53;;;;;;;11.88;5.85;;;;;;;;;;5046312;28;20052;-67
2024/01/16 08:50:19;;;;;;;12.90;5.57;;;;;;;;;;5051187;28;20076;-67
2024/01/16 08:52:46;;;;;;;8.95;5.30;;;;;;;;;;5039031;28;20055;-67
2024/01/16 08:55:12;;;;;;;8.60;5.10;;;;;;;;;;5047806;28;20049;-68
2024/01/16 08:57:41;;;;;;;9.80;5.53;;;;;;;;;;5042906;28;20132;-67
2024/01/16 09:00:09;;;;;;;12.15;5.80;;;;;;;;;;5047881;28;20118;-68
2024/01/16 09:02:35;;;;;;;12.70;6.82;;;;;;;;;;5050124;28;20505;-68
2024/01/16 09:05:02;;;;;;;10.68;7.00;;;;;;;;;;5050963;28;20059;-68
2024/01/16 09:07:28;;;;;;;8.00;5.97;;;;;;;;;;5050708;28;20045;-68
2024/01/16 09:09:54;;;;;;;10.70;5.82;;;;;;;;;;5050884;28;20049;-68
2024/01/16 09:12:21;;;;;;;8.65;5.10;;;;;;;;;;5050444;28;20059;-68
2024/01/16 09:14:49;;;;;;;8.68;4.43;;;;;;;;;;5043627;28;20049;-68
2024/01/16 09:17:15;;;;;;;9.23;5.03;;;;;;;;;;5040689;28;20041;-68
2024/01/16 09:19:41;;;;;;;9.20;4.75;;;;;;;;;;5042006;28;20056;-68
2024/01/16 09:22:08;;;;;;;11.05;5.25;;;;;;;;;;5042155;28;20049;-67
2024/01/16 09:24:34;;;;;;;8.30;5.68;;;;;;;;;;5046006;28;20041;-69
2024/01/16 09:27:01;;;;;;;11.27;5.40;;;;;;;;;;5031473;28;20056;-70
2024/01/16 09:29:27;;;;;;;11.43;5.05;;;;;;;;;;5050405;28;20045;-67
2024/01/16 09:31:55;;;;;;;12.35;5.18;;;;;;;;;;5043806;28;20419;-68
2024/01/16 09:34:21;;;;;;;9.43;5.53;;;;;;;;;;5050360;28;20055;-68
2024/01/16 09:36:48;;;;;;;9.75;5.60;;;;;;;;;;5050081;28;20519;-67
2024/01/16 09:39:16;;;;;;;11.55;4.60;;;;;;;;;;5048315;28;20041;-68
2024/01/16 09:41:42;;;;;;;10.95;5.85;;;;;;;;;;5049770;28;20485;-67
2024/01/16 09:44:09;;;;;;;13.48;6.60;;;;;;;;;;5050872;28;20052;-67
2024/01/16 09:46:38;;;;;;;8.90;5.03;;;;;;;;;;5042404;28;20047;-68
2024/01/16 09:49:06;;;;;;;7.90;4.65;;;;;;;;;;5039179;28;20492;-67
2024/01/16 09:51:33;;;;;;;9.68;4.68;;;;;;;;;;5041532;28;20493;-68
2024/01/16 09:54:00;;;;;;;8.93;4.90;;;;;;;;;;5039086;28;20140;-69
2024/01/16 09:56:29;;;;;;;11.02;7.20;;;;;;;;;;5039370;28;20357;-67
2024/01/16 09:58:58;;;;;;;10.73;5.05;;;;;;;;;;5049445;28;20056;-68
2024/01/16 10:01:27;;;;;;;12.05;5.78;;;;;;;;;;5042360;28;20070;-68
2024/01/16 10:03:54;;;;;;;8.45;4.93;;;;;;;;;;5045495;28;20516;-68
2024/01/16 10:06:22;;;;;;;6.63;4.15;;;;;;;;;;5049078;28;20045;-68
2024/01/16 10:08:48;;;;;;;9.55;4.72;;;;;;;;;;5045091;28;20103;-67
2024/01/16 10:11:15;;;;;;;7.93;4.15;;;;;;;;;;5040356;28;20490;-67
2024/01/16 10:13:42;;;;;;;7.38;4.22;;;;;;;;;;5044225;28;20049;-67
2024/01/16 10:16:08;;;;;;;8.38;4.50;;;;;;;;;;5046968;28;20045;-69
2024/01/16 10:18:35;;;;;;;8.88;4.15;;;;;;;;;;5053839;28;20091;-67
2024/01/16 10:21:01;;;;;;;8.98;4.22;;;;;;;;;;5047213;28;20131;-68
2024/01/16 10:23:29;;;;;;;11.73;5.00;;;;;;;;;;5054296;28;20514;-67
2024/01/16 10:26:08;;;;;;;11.88;4.80;;;;;;;;;;5046201;28;20048;-67
2024/01/16 10:28:35;;;;;;;8.40;4.32;;;;;;;;;;5049876;28;20128;-68
2024/01/16 10:31:04;;;;;;;8.07;4.68;;;;;;;;;;5048288;28;20556;-68
2024/01/16 10:33:31;;;;;;;10.35;4.85;;;;;;;;;;5047127;28;20548;-67
2024/01/16 10:36:08;;;;;;;11.98;4.90;;;;;;;;;;5052881;28;20044;-67
2024/01/16 10:38:38;;;;;;;9.05;4.47;;;;;;;;;;5048990;28;20068;-70
2024/01/16 10:41:24;;;;;;;9.27;5.30;;;;;;;;;;5050119;28;20045;-67
2024/01/16 10:44:03;;;;;;;10.80;4.68;;;;;;;;;;5048791;28;20674;-67
2024/01/16 10:46:30;;;;;;;8.98;4.72;;;;;;;;;;5050741;28;20045;-68
2024/01/16 10:49:00;;;;;;;8.15;4.60;;;;;;;;;;5045124;28;20051;-67
2024/01/16 10:51:27;;;;;;;11.70;5.72;;;;;;;;;;5044566;28;20053;-68
2024/01/16 10:53:58;;;;;;;8.57;4.97;;;;;;;;;;5053938;28;20059;-67
2024/01/16 10:56:25;;;;;;;9.85;4.63;;;;;;;;;;5050650;28;20080;-69
2024/01/16 10:58:58;;;;;;;13.35;5.00;;;;;;;;;;5049868;28;20045;-68
2024/01/16 11:01:25;;;;;;;9.40;5.13;;;;;;;;;;5053736;28;20041;-67
2024/01/16 11:03:52;;;;;;;10.95;4.72;;;;;;;;;;5053484;28;20079;-68
2024/01/16 11:06:19;;;;;;;8.48;4.47;;;;;;;;;;5053501;28;20057;-67
2024/01/16 11:08:46;;;;;;;9.18;4.57;;;;;;;;;;5042362;28;20411;-68
2024/01/16 11:11:15;;;;;;;11.25;4.45;;;;;;;;;;5041783;28;20076;-67
2024/01/16 11:13:44;;;;;;;10.05;4.72;;;;;;;;;;5039544;28;20053;-69
2024/01/16 11:16:11;;;;;;;8.82;4.55;;;;;;;;;;5048421;28;20085;-69
2024/01/16 11:18:37;;;;;;;8.02;4.50;;;;;;;;;;5044657;28;20041;-68
2024/01/16 11:21:05;;;;;;;8.07;4.90;;;;;;;;;;5044164;28;20330;-68
2024/01/16 11:23:32;;;;;;;10.55;4.80;;;;;;;;;;5043542;28;20416;-68
2024/01/16 11:25:59;;;;;;;9.50;4.90;;;;;;;;;;5050922;28;20055;-68
2024/01/16 11:28:30;;;;;;;9.00;4.88;;;;;;;;;;5040642;28;20056;-68
2024/01/16 11:30:57;;;;;;;7.78;4.80;;;;;;;;;;5049211;28;20059;-68
2024/01/16 11:33:42;;;;;;;9.15;4.43;;;;;;;;;;5040642;28;20088;-67
2024/01/16 11:36:37;;;;;;;7.15;4.45;;;;;;;;;;5049727;28;20083;-69
2024/01/16 11:39:05;;;;;;;10.02;4.95;;;;;;;;;;5048895;28;20519;-68
2024/01/16 11:41:48;;;;;;;10.07;4.63;;;;;;;;;;5048782;28;20071;-67
2024/01/16 11:44:36;;;;;;;9.80;5.18;;;;;;;;;;5043126;28;20045;-68
2024/01/16 11:47:03;;;;;;;11.27;4.78;;;;;;;;;;5044318;28;20051;-68
2024/01/16 11:49:31;;;;;;;8.63;4.38;;;;;;;;;;5046915;28;20064;-67
2024/01/16 11:51:58;;;;;;;9.60;4.80;;;;;;;;;;5044756;28;20056;-70
2024/01/16 11:54:24;;;;;;;8.73;4.80;;;;;;;;;;5043147;28;20452;-68
2024/01/16 11:57:05;;;;;;;8.65;4.28;;;;;;;;;;5050865;28;20089;-70
2024/01/16 11:59:52;;;;;;;9.18;4.22;;;;;;;;;;5049092;28;20045;-68
2024/01/16 12:02:22;;;;;;;5.70;3.47;;;;;;;;;;5038689;28;20051;-67
2024/01/16 12:04:54;;;;;;;8.95;3.92;;;;;;;;;;5047385;28;20141;-68
2024/01/16 12:07:20;;;;;;;7.00;3.83;;;;;;;;;;5050594;28;20045;-67
2024/01/16 12:09:46;;;;;;;9.35;3.92;;;;;;;;;;5049878;28;20521;-67
2024/01/16 12:12:15;;;;;;;6.03;3.75;;;;;;;;;;5051383;28;20049;-68
2024/01/16 12:14:51;;;;;;;8.02;4.10;;;;;;;;;;5051497;28;20150;-67
2024/01/16 12:17:20;;;;;;;7.88;3.90;;;;;;;;;;5050114;28;20088;-67
2024/01/16 12:19:49;;;;;;;8.90;3.53;;;;;;;;;;5047383;28;20448;-68
2024/01/16 12:22:16;;;;;;;6.50;4.05;;;;;;;;;;5042940;28;20045;-67
2024/01/16 12:24:43;;;;;;;5.97;3.97;;;;;;;;;;5050921;28;20500;-68
2024/01/16 12:27:09;;;;;;;8.90;4.00;;;;;;;;;;5050372;28;20045;-68
2024/01/16 12:29:36;;;;;;;11.20;4.57;;;;;;;;;;5047144;28;20046;-68
2024/01/16 12:32:07;;;;;;;5.45;3.20;;;;;;;;;;5050475;28;20047;-68
2024/01/16 12:34:34;;;;;;;8.20;3.78;;;;;;;;;;5046103;28;20486;-67
2024/01/16 12:37:07;;;;;;;6.13;3.60;;;;;;;;;;5042656;28;20051;-68
2024/01/16 12:39:35;;;;;;;8.97;3.73;;;;;;;;;;5048750;28;20056;-68
2024/01/16 12:42:02;;;;;;;9.45;2.75;;;;;;;;;;5048143;28;20048;-69
2024/01/16 12:44:28;;;;;;;5.00;3.15;;;;;;;;;;5051289;28;20045;-68
2024/01/16 12:46:54;;;;;;;5.80;2.67;;;;;;;;;;5050662;28;20049;-68
2024/01/16 12:49:22;;;;;;;4.25;2.90;;;;;;;;;;5046834;28;20439;-68
2024/01/16 12:51:49;;;;;;;6.22;3.08;;;;;;;;;;5051557;28;20420;-68
2024/01/16 12:54:18;;;;;;;7.65;3.42;;;;;;;;;;5046826;28;20494;-68
2024/01/16 12:56:44;;;;;;;9.93;3.92;;;;;;;;;;5044339;28;20057;-68
2024/01/16 12:59:12;;;;;;;12.20;4.43;;;;;;;;;;5048593;28;20051;-68
2024/01/16 13:01:41;;;;;;;6.25;3.70;;;;;;;;;;5045650;28;20489;-68
2024/01/16 13:04:08;;;;;;;9.73;3.15;;;;;;;;;;5040870;28;20056;-68
2024/01/16 13:06:34;;;;;;;5.38;3.17;;;;;;;;;;5050037;28;20048;-68
2024/01/16 13:09:09;;;;;;;5.90;3.28;;;;;;;;;;5049790;28;20128;-68
2024/01/16 13:11:47;;;;;;;6.53;3.00;;;;;;;;;;5048176;28;20497;-68
2024/01/16 13:14:13;;;;;;;5.95;3.42;;;;;;;;;;5047832;28;20049;-68
2024/01/16 13:16:39;;;;;;;5.38;2.50;;;;;;;;;;5044318;28;20416;-68
2024/01/16 13:19:09;;;;;;;4.28;2.42;;;;;;;;;;5045957;28;20409;-68
2024/01/16 13:21:36;;;;;;;6.47;3.28;;;;;;;;;;5045692;28;20045;-68
2024/01/16 13:24:02;;;;;;;4.93;2.50;;;;;;;;;;5048869;28;20051;-67
2024/01/16 13:26:29;;;;;;;3.83;2.60;;;;;;;;;;5046644;28;20051;-68
2024/01/16 13:28:56;;;;;;;4.80;2.28;;;;;;;;;;5048713;28;20052;-68
2024/01/16 13:31:23;;;;;;;6.75;2.33;;;;;;;;;;5050054;28;20128;-68
2024/01/16 13:33:49;;;;;;;4.93;2.38;;;;;;;;;;5050454;28;20049;-68
2024/01/16 13:36:16;;;;;;;5.88;2.67;;;;;;;;;;5049234;28;20063;-68
2024/01/16 13:38:42;;;;;;;4.57;2.40;;;;;;;;;;5039837;28;20053;-68
2024/01/16 13:41:09;;;;;;;3.45;2.17;;;;;;;;;;5047825;28;20049;-68
2024/01/16 13:43:35;;;;;;;5.72;2.42;;;;;;;;;;5041978;28;20128;-67
2024/01/16 13:46:03;;;;;;;4.70;2.33;;;;;;;;;;5048850;28;20128;-68
2024/01/16 13:48:29;;;;;;;6.47;2.40;;;;;;;;;;5044966;28;20501;-68
2024/01/16 13:50:56;;;;;;;4.75;2.50;;;;;;;;;;5042579;28;20071;-68
2024/01/16 13:53:22;;;;;;;4.97;2.55;;;;;;;;;;5048891;28;20127;-68
2024/01/16 13:55:49;;;;;;;4.40;2.58;;;;;;;;;;5049339;28;20072;-67
2024/01/16 13:58:15;;;;;;;8.32;3.80;;;;;;;;;;5038033;28;20041;-69
2024/01/16 14:00:42;;;;;;;6.55;3.63;;;;;;;;;;5045818;28;20088;-67
2024/01/16 14:03:09;;;;;;;5.43;3.30;;;;;;;;;;5045629;28;20565;-68
2024/01/16 14:05:36;;;;;;;6.38;3.40;;;;;;;;;;5050334;28;20056;-68
2024/01/16 14:08:02;;;;;;;5.20;2.75;;;;;;;;;;5048960;28;20053;-67
2024/01/16 14:10:29;;;;;;;6.18;2.90;;;;;;;;;;5043465;28;20047;-68
2024/01/16 14:12:56;;;;;;;4.90;2.53;;;;;;;;;;5049835;28;20136;-68
2024/01/16 14:15:23;;;;;;;5.88;3.08;;;;;;;;;;5049329;28;20059;-68
2024/01/16 14:17:50;;;;;;;7.00;2.65;;;;;;;;;;5037444;28;20049;-68
2024/01/16 14:20:22;;;;;;;6.60;2.67;;;;;;;;;;5042128;28;20041;-68
2024/01/16 14:22:48;;;;;;;7.10;2.67;;;;;;;;;;5043298;28;20099;-68
2024/01/16 14:25:18;;;;;;;6.07;3.30;;;;;;;;;;5036294;28;20556;-68
2024/01/16 14:27:46;;;;;;;7.20;2.75;;;;;;;;;;5048973;28;20053;-68
2024/01/16 14:30:13;;;;;;;5.25;2.72;;;;;;;;;;5049053;28;20049;-68
2024/01/16 14:32:40;;;;;;;7.40;2.80;;;;;;;;;;5049632;28;20443;-67
2024/01/16 14:35:07;;;;;;;6.28;3.30;;;;;;;;;;5048933;28;20394;-68
2024/01/16 14:37:35;;;;;;;6.57;3.05;;;;;;;;;;5040576;28;20050;-68
2024/01/16 14:40:01;;;;;;;8.27;3.97;;;;;;;;;;5043215;28;20049;-67
2024/01/16 14:42:28;;;;;;;8.57;3.40;;;;;;;;;;5042110;28;20045;-67